Wendt, South Dakota
Current Conditions -  °F | °C
As of 6:53 AM on Tuesday 21 Oct 2014 (Local Time) from KPIR Reporting Station
Clear Clear  
Wind Chill: 52°   Ceiling: Unl
Heat Index: 52°   Visibility: 10mi
Dew Point: 40°   Wind: 13mph
Humidity: 63%   Direction: 130°SE
Pressure: 29.87"   Gusts: NA
Location:  44.3693°N, 100.04°W
Report Text: KPIR 211153Z AUTO 13011KT 10SM CLR 11/04 A2987 RMK AO2 SLP112 T01110044 10139 20106 56006
Loading
Personal Weather Stations






























Interactive Weather Map
Tropical Storm Tracking
New forecast layout! Learn more

10-Day Weather Forecast

Advertisements
Track Severe Weather on mobile